Time;durP1;ratioP1;P1;durP2;ratioP2;P2;SDS_P1;SDS_P2;PMS_P1;PMS_P2;Temp;Humidity;BMP_temperature;BMP_pressure;BME280_temperature;BME280_humidity;BME280_pressure;Samples;Min_cycle;Max_cycle;Signal;HPM_P1;HPM_P2
2021/11/24 00:00:26;;;;;;;21.20;11.95;;;;;;;1.83;95.76;97315.72;4990400;28;20038;-64
2021/11/24 00:02:53;;;;;;;21.35;11.68;;;;;;;1.82;95.70;97308.72;4999270;28;20600;-65
2021/11/24 00:05:19;;;;;;;19.08;10.50;;;;;;;1.82;95.08;97311.41;4994871;28;20161;-62
2021/11/24 00:07:45;;;;;;;21.08;11.38;;;;;;;1.67;96.77;97307.84;5000085;28;20515;-65
2021/11/24 00:10:13;;;;;;;21.83;12.35;;;;;;;1.66;95.96;97311.66;4998547;28;20034;-63
2021/11/24 00:12:39;;;;;;;20.70;11.13;;;;;;;1.65;96.56;97315.44;4999881;28;20038;-62
2021/11/24 00:15:06;;;;;;;20.88;12.35;;;;;;;1.63;95.96;97309.53;4989604;28;20129;-62
2021/11/24 00:17:31;;;;;;;22.08;12.50;;;;;;;1.62;96.53;97309.84;4997489;28;20120;-63
2021/11/24 00:19:56;;;;;;;20.33;11.05;;;;;;;1.69;96.62;97308.38;4996394;28;20069;-63
2021/11/24 00:22:22;;;;;;;21.80;11.43;;;;;;;1.71;96.07;97295.38;4995104;28;20056;-63
2021/11/24 00:24:47;;;;;;;20.17;11.23;;;;;;;1.63;97.10;97298.75;4998967;28;20045;-62
2021/11/24 00:27:13;;;;;;;20.42;11.75;;;;;;;1.59;97.53;97297.72;4995081;28;20125;-63
2021/11/24 00:29:39;;;;;;;22.23;11.85;;;;;;;1.61;97.15;97303.63;4999682;28;20038;-63
2021/11/24 00:32:05;;;;;;;22.48;13.10;;;;;;;1.60;97.72;97304.72;4994828;28;20466;-63
2021/11/24 00:34:31;;;;;;;22.17;11.90;;;;;;;1.59;98.21;97305.03;4997829;28;20126;-64
2021/11/24 00:36:57;;;;;;;20.88;11.70;;;;;;;1.59;97.90;97296.94;5002594;28;20598;-63
2021/11/24 00:39:22;;;;;;;20.55;11.05;;;;;;;1.62;97.54;97297.16;4997412;28;20804;-62
2021/11/24 00:41:48;;;;;;;21.25;11.43;;;;;;;1.61;97.07;97297.44;5001587;28;20049;-63
2021/11/24 00:44:13;;;;;;;19.73;11.02;;;;;;;1.69;97.05;97294.88;4995733;28;20033;-61
2021/11/24 00:46:39;;;;;;;23.02;12.40;;;;;;;1.70;96.98;97292.97;5001681;28;20109;-63
2021/11/24 00:49:05;;;;;;;22.58;12.00;;;;;;;1.65;96.22;97280.34;4998453;28;20503;-63
2021/11/24 00:51:30;;;;;;;20.80;11.02;;;;;;;1.67;96.75;97278.16;5001377;28;20042;-63
2021/11/24 00:53:56;;;;;;;21.88;12.20;;;;;;;1.63;96.77;97284.44;5002608;28;20080;-62
2021/11/24 00:56:21;;;;;;;21.52;11.27;;;;;;;1.56;97.15;97282.09;4997861;28;20609;-62
2021/11/24 00:58:47;;;;;;;20.88;11.00;;;;;;;1.55;97.04;97287.81;4999716;28;20053;-63
2021/11/24 01:01:12;;;;;;;22.73;11.93;;;;;;;1.55;97.13;97283.22;4992615;28;20092;-62
2021/11/24 01:03:38;;;;;;;21.17;12.18;;;;;;;1.57;96.80;97280.19;5001039;28;20518;-62
2021/11/24 01:06:04;;;;;;;21.52;11.77;;;;;;;1.55;96.94;97279.69;4999907;28;20042;-62
2021/11/24 01:08:29;;;;;;;20.48;11.63;;;;;;;1.57;96.40;97283.72;4999394;28;20046;-63
2021/11/24 01:10:55;;;;;;;22.25;11.65;;;;;;;1.55;96.92;97277.81;5002286;28;20076;-62
2021/11/24 01:13:21;;;;;;;19.88;11.85;;;;;;;1.56;96.72;97284.81;4993976;28;20053;-63
2021/11/24 01:15:47;;;;;;;24.50;12.70;;;;;;;1.52;97.21;97276.50;5000840;28;20046;-63
2021/11/24 01:18:14;;;;;;;23.40;12.23;;;;;;;1.52;97.65;97284.59;4998239;28;20060;-63
2021/11/24 01:20:40;;;;;;;21.63;12.25;;;;;;;1.51;97.77;97285.72;5002070;28;20398;-65
2021/11/24 01:23:06;;;;;;;21.25;11.68;;;;;;;1.51;98.10;97284.88;4987197;28;20050;-62
2021/11/24 01:25:31;;;;;;;21.60;11.93;;;;;;;1.54;96.49;97281.59;5001368;28;20066;-62
2021/11/24 01:27:59;;;;;;;23.98;12.32;;;;;;;1.56;96.99;97286.72;5002007;28;20521;-62
2021/11/24 01:30:25;;;;;;;22.58;11.65;;;;;;;1.55;97.51;97287.81;4991309;28;20182;-63
2021/11/24 01:32:50;;;;;;;23.05;12.18;;;;;;;1.55;97.73;97279.69;5003552;28;20042;-63
2021/11/24 01:35:16;;;;;;;20.00;11.40;;;;;;;1.56;97.04;97275.91;5004204;28;20395;-64
2021/11/24 01:37:42;;;;;;;21.83;12.98;;;;;;;1.59;96.56;97286.13;5000740;28;20041;-63
2021/11/24 01:40:08;;;;;;;21.52;11.70;;;;;;;1.61;96.38;97286.63;4996303;28;20033;-63
2021/11/24 01:42:34;;;;;;;19.30;10.98;;;;;;;1.60;95.67;97277.72;5001366;28;20049;-63
2021/11/24 01:45:00;;;;;;;21.05;10.95;;;;;;;1.63;95.96;97287.16;4998939;28;20038;-63
2021/11/24 01:47:26;;;;;;;20.75;10.73;;;;;;;1.60;96.71;97285.81;4993988;28;20046;-62
2021/11/24 01:49:51;;;;;;;20.52;11.63;;;;;;;1.59;96.49;97270.72;4998399;28;20042;-63
2021/11/24 01:52:17;;;;;;;21.13;11.93;;;;;;;1.63;96.45;97276.34;4996260;28;20643;-64
2021/11/24 01:54:43;;;;;;;22.83;12.52;;;;;;;1.56;95.98;97282.09;5001049;28;20434;-62
2021/11/24 01:57:08;;;;;;;21.25;11.23;;;;;;;1.58;95.72;97277.22;4989324;28;20046;-62
2021/11/24 01:59:33;;;;;;;22.55;11.60;;;;;;;1.57;95.96;97277.50;4997713;28;20038;-62
2021/11/24 02:01:59;;;;;;;20.35;11.77;;;;;;;1.55;95.50;97275.13;4998535;28;20095;-63
2021/11/24 02:04:24;;;;;;;22.85;12.13;;;;;;;1.56;95.72;97274.00;4993909;28;20088;-64
2021/11/24 02:06:52;;;;;;;21.77;13.15;;;;;;;1.55;95.34;97274.31;4999975;28;20583;-63
2021/11/24 02:09:19;;;;;;;21.30;10.95;;;;;;;1.56;96.22;97267.81;4992595;28;20132;-63
2021/11/24 02:11:45;;;;;;;20.58;10.85;;;;;;;1.65;96.34;97257.94;4995908;28;20046;-62
2021/11/24 02:14:12;;;;;;;21.08;11.02;;;;;;;1.66;94.89;97252.25;4992830;28;20034;-60
2021/11/24 02:16:45;;;;;;;17.80;10.65;;;;;;;1.67;94.70;97256.53;5000374;28;20046;-63
2021/11/24 02:19:11;;;;;;;19.55;10.82;;;;;;;1.71;94.79;97254.88;4991077;28;20044;-63
2021/11/24 02:21:37;;;;;;;21.98;12.05;;;;;;;1.72;94.43;97250.28;5001408;28;20564;-62
2021/11/24 02:24:03;;;;;;;21.58;12.77;;;;;;;1.77;93.32;97242.09;4998046;28;20133;-61
2021/11/24 02:26:29;;;;;;;20.98;10.15;;;;;;;1.78;94.29;97238.28;4997470;28;20132;-61
2021/11/24 02:28:54;;;;;;;19.33;11.13;;;;;;;1.89;93.40;97228.09;4995080;28;20046;-62
2021/11/24 02:31:21;;;;;;;19.83;11.15;;;;;;;1.72;93.97;97232.16;4992326;28;20100;-62
2021/11/24 02:33:51;;;;;;;22.67;13.05;;;;;;;1.62;94.02;97234.22;4995646;28;20033;-64
2021/11/24 02:36:17;;;;;;;21.80;11.75;;;;;;;1.64;94.73;97223.94;4994404;28;20038;-62
2021/11/24 02:38:44;;;;;;;22.23;12.00;;;;;;;1.57;94.48;97221.63;5001009;28;20125;-61
2021/11/24 02:41:10;;;;;;;21.00;11.48;;;;;;;1.57;95.23;97220.81;4994171;28;20104;-62
2021/11/24 02:43:35;;;;;;;19.75;11.63;;;;;;;1.47;95.97;97214.47;4993903;28;20462;-65
2021/11/24 02:46:01;;;;;;;20.75;11.27;;;;;;;1.54;95.52;97216.81;5000233;28;20056;-65
2021/11/24 02:48:26;;;;;;;22.45;11.63;;;;;;;1.51;95.65;97203.91;4993745;28;20103;-65
2021/11/24 02:50:54;;;;;;;23.05;12.45;;;;;;;1.47;96.33;97209.09;4999193;28;20101;-62
2021/11/24 02:53:25;;;;;;;24.10;12.73;;;;;;;1.43;96.08;97216.16;4994762;28;20038;-64
2021/11/24 02:55:51;;;;;;;21.08;11.65;;;;;;;1.42;96.52;97221.88;5000036;28;20454;-63
2021/11/24 02:58:17;;;;;;;25.85;12.35;;;;;;;1.45;95.48;97208.56;4989354;28;20038;-64
2021/11/24 03:00:42;;;;;;;21.95;11.98;;;;;;;1.40;95.97;97211.34;4998281;28;20052;-63
2021/11/24 03:03:07;;;;;;;22.20;12.50;;;;;;;1.44;96.49;97206.16;4994414;28;20034;-62
2021/11/24 03:05:33;;;;;;;22.00;11.68;;;;;;;1.40;96.40;97205.97;5003894;28;20061;-64
2021/11/24 03:07:59;;;;;;;23.23;13.40;;;;;;;1.42;96.07;97203.75;5005222;28;20038;-62
2021/11/24 03:10:26;;;;;;;22.30;12.75;;;;;;;1.41;97.00;97207.56;4993775;28;20050;-62
2021/11/24 03:12:51;;;;;;;23.23;13.18;;;;;;;1.40;96.94;97207.88;4997995;28;20446;-63
2021/11/24 03:15:16;;;;;;;23.77;12.50;;;;;;;1.42;96.82;97197.56;4997132;28;20111;-63
2021/11/24 03:17:42;;;;;;;23.70;14.15;;;;;;;1.42;96.43;97190.25;5001921;28;20095;-63
2021/11/24 03:20:09;;;;;;;26.27;14.07;;;;;;;1.41;96.49;97185.97;4993721;28;20092;-63
2021/11/24 03:22:36;;;;;;;21.95;11.85;;;;;;;1.48;95.66;97185.59;5001004;28;20046;-61
2021/11/24 03:25:02;;;;;;;22.65;12.93;;;;;;;1.45;95.85;97184.28;4999993;28;20042;-63
2021/11/24 03:27:31;;;;;;;22.38;12.85;;;;;;;1.50;95.72;97183.41;4986546;28;20053;-63
2021/11/24 03:29:58;;;;;;;25.95;13.68;;;;;;;1.39;96.41;97181.94;4999977;28;20106;-64
2021/11/24 03:32:24;;;;;;;23.33;13.25;;;;;;;1.38;96.48;97174.97;4994918;28;20734;-63
2021/11/24 03:34:50;;;;;;;24.83;12.55;;;;;;;1.40;96.22;97168.16;4999668;28;20092;-61
2021/11/24 03:37:17;;;;;;;21.95;11.57;;;;;;;1.48;95.58;97172.13;4991179;28;20045;-63
2021/11/24 03:39:44;;;;;;;23.42;11.93;;;;;;;1.48;95.58;97166.72;4999401;28;20041;-64
2021/11/24 03:42:09;;;;;;;20.67;12.32;;;;;;;1.39;95.35;97163.88;4992437;28;20099;-64
2021/11/24 03:44:35;;;;;;;21.77;12.82;;;;;;;1.42;95.30;97163.28;4999129;28;20042;-64
2021/11/24 03:47:00;;;;;;;23.20;13.50;;;;;;;1.37;95.70;97170.66;4994830;28;20540;-62
2021/11/24 03:49:25;;;;;;;25.92;13.45;;;;;;;1.39;95.81;97163.88;4993844;28;20041;-63
2021/11/24 03:51:51;;;;;;;23.55;13.15;;;;;;;1.44;95.02;97161.09;4998170;28;20042;-62
2021/11/24 03:54:17;;;;;;;22.20;11.82;;;;;;;1.41;95.35;97160.91;4996473;28;20042;-61
2021/11/24 03:56:42;;;;;;;21.60;13.45;;;;;;;1.37;95.01;97159.84;5009430;28;20395;-62
2021/11/24 03:59:08;;;;;;;22.90;11.88;;;;;;;1.38;95.27;97156.06;4996262;28;20046;-62
2021/11/24 04:01:33;;;;;;;22.63;12.45;;;;;;;1.34;94.38;97150.47;4999254;28;20066;-63
2021/11/24 04:03:59;;;;;;;24.08;13.15;;;;;;;1.36;94.20;97148.28;4997044;28;20549;-63
2021/11/24 04:06:26;;;;;;;23.25;12.43;;;;;;;1.36;94.68;97147.47;4994684;28;20057;-64
2021/11/24 04:08:52;;;;;;;22.85;11.65;;;;;;;1.34;95.01;97150.47;4999111;28;20125;-63
2021/11/24 04:11:18;;;;;;;23.70;12.50;;;;;;;1.36;95.50;97147.47;4998057;28;20050;-64
2021/11/24 04:13:43;;;;;;;22.17;12.90;;;;;;;1.32;95.20;97147.28;5002553;28;20479;-63
2021/11/24 04:16:09;;;;;;;22.35;12.45;;;;;;;1.31;95.65;97142.94;4999626;28;20046;-63
2021/11/24 04:18:35;;;;;;;20.92;12.82;;;;;;;1.31;95.92;97151.88;5003585;28;20050;-64
2021/11/24 04:21:00;;;;;;;21.67;12.13;;;;;;;1.32;95.55;97147.28;5003229;28;20034;-63
2021/11/24 04:23:26;;;;;;;23.10;12.63;;;;;;;1.32;95.15;97148.06;4989810;28;20046;-64
2021/11/24 04:25:52;;;;;;;19.83;11.88;;;;;;;1.31;94.94;97135.69;5001836;28;20125;-62
2021/11/24 04:28:18;;;;;;;24.38;13.35;;;;;;;1.30;95.19;97144.88;4997685;28;20050;-62
2021/11/24 04:30:44;;;;;;;26.80;13.38;;;;;;;1.30;95.35;97141.38;5001851;28;20133;-64
2021/11/24 04:33:09;;;;;;;23.65;13.75;;;;;;;1.29;95.66;97137.84;4998139;28;20137;-64
2021/11/24 04:35:35;;;;;;;23.60;12.70;;;;;;;1.28;96.47;97130.88;5001914;28;20054;-64
2021/11/24 04:38:00;;;;;;;24.05;13.55;;;;;;;1.26;96.79;97133.06;5006181;28;20045;-63
2021/11/24 04:40:26;;;;;;;20.40;11.98;;;;;;;1.29;96.17;97132.44;4997718;28;20045;-64
2021/11/24 04:42:53;;;;;;;26.05;13.30;;;;;;;1.29;96.74;97123.56;5001489;28;20049;-64
2021/11/24 04:45:18;;;;;;;25.23;13.07;;;;;;;1.30;96.55;97131.38;4994050;28;20188;-63
2021/11/24 04:47:44;;;;;;;24.80;13.10;;;;;;;1.29;96.36;97132.44;5004005;28;20113;-64
2021/11/24 04:50:10;;;;;;;21.75;11.95;;;;;;;1.28;96.92;97132.78;4996741;28;20042;-63
2021/11/24 04:52:36;;;;;;;24.60;13.30;;;;;;;1.29;96.70;97123.56;4998789;28;20487;-64
2021/11/24 04:55:03;;;;;;;23.55;13.63;;;;;;;1.28;96.65;97119.28;5002468;28;20180;-62
2021/11/24 04:57:29;;;;;;;22.95;12.27;;;;;;;1.31;96.69;97124.06;5000544;28;20046;-63
2021/11/24 04:59:54;;;;;;;22.27;11.40;;;;;;;1.37;96.25;97122.91;5003217;28;20040;-64
2021/11/24 05:02:19;;;;;;;21.35;12.02;;;;;;;1.33;97.11;97116.47;4996730;28;20038;-64
2021/11/24 05:04:45;;;;;;;24.30;13.00;;;;;;;1.32;96.27;97121.06;5003210;28;20037;-64
2021/11/24 05:07:11;;;;;;;21.13;12.10;;;;;;;1.29;97.34;97116.25;4996707;28;20124;-63
2021/11/24 05:09:36;;;;;;;23.83;13.43;;;;;;;1.26;97.01;97124.97;5003139;28;20049;-64
2021/11/24 05:12:04;;;;;;;23.52;13.10;;;;;;;1.26;97.39;97133.06;4995148;28;20121;-64
2021/11/24 05:14:34;;;;;;;22.10;12.43;;;;;;;1.32;96.96;97122.97;4993952;28;20046;-63
2021/11/24 05:17:03;;;;;;;23.08;12.23;;;;;;;1.27;97.16;97121.16;4993338;28;20050;-62
2021/11/24 05:19:30;;;;;;;25.50;12.40;;;;;;;1.27;97.33;97121.16;4995660;28;20206;-63
2021/11/24 05:21:56;;;;;;;23.55;13.20;;;;;;;1.29;97.22;97129.75;4993773;28;20038;-61
2021/11/24 05:24:21;;;;;;;24.90;13.38;;;;;;;1.28;97.00;97124.69;4992740;28;20458;-62
2021/11/24 05:26:48;;;;;;;24.77;12.55;;;;;;;1.34;96.97;97123.47;4993381;28;20176;-63
2021/11/24 05:29:13;;;;;;;21.00;11.77;;;;;;;1.37;96.38;97122.91;4989598;28;20062;-61
2021/11/24 05:31:39;;;;;;;23.60;12.60;;;;;;;1.32;96.99;97118.38;5002234;28;20660;-63
2021/11/24 05:34:05;;;;;;;65.90;28.52;;;;;;;1.32;96.99;97118.38;4998096;28;20107;-63
2021/11/24 05:36:31;;;;;;;28.52;14.95;;;;;;;1.28;96.70;97124.69;5002209;28;20046;-63
2021/11/24 05:38:56;;;;;;;35.60;17.88;;;;;;;1.27;96.78;97126.56;5012714;28;20045;-64
2021/11/24 05:41:22;;;;;;;26.27;13.88;;;;;;;1.32;96.63;97129.16;5008193;28;20506;-63
2021/11/24 05:43:51;;;;;;;26.77;14.32;;;;;;;1.34;96.58;97123.47;5013114;28;20050;-63
2021/11/24 05:46:27;;;;;;;28.87;14.37;;;;;;;1.29;97.44;97121.66;5001018;28;20490;-63
2021/11/24 05:48:54;;;;;;;24.60;13.27;;;;;;;1.31;96.56;97113.28;5015240;28;20053;-64
2021/11/24 05:51:20;;;;;;;24.25;14.23;;;;;;;1.27;96.37;97110.38;5010235;28;20062;-64
2021/11/24 05:53:45;;;;;;;25.92;13.90;;;;;;;1.39;96.86;97117.19;5017197;28;20042;-64
2021/11/24 05:56:11;;;;;;;21.73;12.13;;;;;;;1.34;95.80;97110.78;4999619;28;20038;-63
2021/11/24 05:58:36;;;;;;;27.40;14.43;;;;;;;1.24;96.79;97113.66;5013850;28;20093;-63
2021/11/24 06:01:02;;;;;;;25.15;14.95;;;;;;;1.22;97.11;97098.84;5000461;28;20038;-63
2021/11/24 06:03:28;;;;;;;27.55;14.55;;;;;;;1.33;96.42;97101.09;5010072;28;20077;-64
2021/11/24 06:05:55;;;;;;;23.80;13.85;;;;;;;1.25;96.44;97104.47;5015113;28;20065;-64
2021/11/24 06:08:20;;;;;;;32.80;16.70;;;;;;;1.27;97.04;97104.16;5010103;28;20045;-64
2021/11/24 06:10:46;;;;;;;24.20;13.63;;;;;;;1.28;97.46;97095.78;5015969;28;20045;-64
2021/11/24 06:13:12;;;;;;;26.80;13.40;;;;;;;1.40;95.96;97094.50;5007325;28;20046;-63
2021/11/24 06:15:39;;;;;;;21.40;12.80;;;;;;;1.47;96.03;97098.41;5002930;28;20046;-61
2021/11/24 06:18:04;;;;;;;23.95;12.50;;;;;;;1.38;96.35;97094.00;4986276;28;20049;-63
2021/11/24 06:20:30;;;;;;;24.58;13.23;;;;;;;1.36;95.93;97090.81;4994973;28;20142;-63
2021/11/24 06:22:55;;;;;;;27.20;14.13;;;;;;;1.31;96.52;97102.47;5019556;28;20109;-63
2021/11/24 06:25:21;;;;;;;24.10;14.65;;;;;;;1.25;96.71;97093.66;5003421;28;20038;-62
2021/11/24 06:27:47;;;;;;;23.17;13.90;;;;;;;1.29;95.99;97102.75;5011484;28;20041;-63
2021/11/24 06:30:17;;;;;;;26.88;14.40;;;;;;;1.45;95.51;97097.91;4983000;28;20057;-62
2021/11/24 06:32:43;;;;;;;23.80;13.15;;;;;;;1.37;96.24;97104.00;5001606;28;20042;-62
2021/11/24 06:35:08;;;;;;;23.50;13.43;;;;;;;1.45;96.49;97097.13;4981989;28;20570;-62
2021/11/24 06:37:34;;;;;;;22.88;12.20;;;;;;;1.53;95.79;97102.63;4981983;28;20050;-64
2021/11/24 06:40:02;;;;;;;24.80;14.63;;;;;;;1.66;94.82;97103.75;4983921;28;20043;-62
2021/11/24 06:42:27;;;;;;;23.60;13.25;;;;;;;1.38;96.36;97111.00;4977613;28;20042;-63
2021/11/24 06:44:53;;;;;;;34.47;19.23;;;;;;;1.38;96.52;97102.09;4982959;28;20042;-62
2021/11/24 06:47:18;;;;;;;25.80;15.52;;;;;;;1.63;96.94;97103.53;4977758;28;20081;-63
2021/11/24 06:49:45;;;;;;;23.45;12.98;;;;;;;1.84;95.88;97101.25;4982794;28;20050;-63
2021/11/24 06:52:11;;;;;;;24.23;14.10;;;;;;;1.57;94.52;97107.41;4976895;28;20045;-64
2021/11/24 06:54:37;;;;;;;25.33;12.93;;;;;;;1.48;95.77;97107.31;4982391;28;20042;-64
2021/11/24 06:57:03;;;;;;;35.80;22.77;;;;;;;1.34;95.98;97101.88;4980184;28;20046;-62
2021/11/24 06:59:28;;;;;;;24.52;15.25;;;;;;;1.45;96.03;97106.00;4980603;28;20050;-65
2021/11/24 07:01:54;;;;;;;26.45;13.90;;;;;;;1.52;95.89;97106.41;4981142;28;20046;-63
2021/11/24 07:04:19;;;;;;;26.00;14.18;;;;;;;1.42;95.66;97097.69;4977216;28;20125;-62
2021/11/24 07:06:44;;;;;;;29.45;15.93;;;;;;;1.38;96.03;97105.59;4983832;28;20046;-63
2021/11/24 07:09:11;;;;;;;26.98;14.68;;;;;;;1.29;96.48;97107.38;4983321;28;20042;-65
2021/11/24 07:11:37;;;;;;;26.13;14.93;;;;;;;1.44;96.06;97106.28;4990674;28;20476;-63
2021/11/24 07:14:03;;;;;;;24.75;13.55;;;;;;;1.44;95.20;97107.13;4997385;28;20125;-63
2021/11/24 07:16:29;;;;;;;29.45;15.95;;;;;;;1.38;96.76;97108.28;5000527;28;20137;-65
2021/11/24 07:18:54;;;;;;;27.35;15.88;;;;;;;1.25;96.15;97107.16;5000703;28;20042;-64
2021/11/24 07:21:19;;;;;;;27.60;15.10;;;;;;;1.34;96.95;97104.59;4996321;28;20563;-64
2021/11/24 07:23:45;;;;;;;29.40;16.35;;;;;;;1.52;96.56;97102.94;4999701;28;20567;-64
2021/11/24 07:26:11;;;;;;;26.73;14.98;;;;;;;1.63;94.56;97103.53;4996006;28;20046;-62
2021/11/24 07:28:36;;;;;;;27.85;14.70;;;;;;;1.78;93.43;97107.84;4998076;28;20041;-63
2021/11/24 07:31:02;;;;;;;27.35;16.27;;;;;;;1.82;93.15;97106.97;4999052;28;20048;-65
2021/11/24 07:33:27;;;;;;;29.42;15.32;;;;;;;2.03;93.95;97101.13;4996304;28;20077;-66
2021/11/24 07:35:52;;;;;;;26.88;14.32;;;;;;;1.81;93.18;97104.56;5000054;28;20057;-66
2021/11/24 07:38:18;;;;;;;23.70;13.57;;;;;;;1.68;94.13;97106.16;4995110;28;20038;-66
2021/11/24 07:40:43;;;;;;;35.65;19.60;;;;;;;1.52;94.25;97100.22;5001697;28;20042;-65
2021/11/24 07:43:09;;;;;;;23.40;13.05;;;;;;;1.52;93.67;97087.50;4997386;28;20038;-64
2021/11/24 07:45:34;;;;;;;27.52;14.77;;;;;;;1.50;93.99;97100.53;5009644;28;20049;-65
2021/11/24 07:48:00;;;;;;;26.98;14.15;;;;;;;1.53;94.11;97096.41;5010250;28;20116;-66
2021/11/24 07:50:26;;;;;;;33.72;21.13;;;;;;;1.57;95.11;97097.44;4996595;28;20088;-64
2021/11/24 07:52:51;;;;;;;27.48;15.57;;;;;;;1.72;94.83;97099.03;4999889;28;20042;-65
2021/11/24 07:55:17;;;;;;;24.20;13.40;;;;;;;1.95;93.37;97102.66;4995464;28;20125;-64
2021/11/24 07:57:42;;;;;;;24.73;13.07;;;;;;;2.23;91.99;97102.63;4998650;28;20459;-66
2021/11/24 08:00:08;;;;;;;23.17;13.20;;;;;;;2.36;90.76;97106.41;4996583;28;20042;-64
2021/11/24 08:02:34;;;;;;;21.67;12.45;;;;;;;2.32;90.75;97094.59;5000669;28;20450;-66
2021/11/24 08:04:59;;;;;;;22.50;12.43;;;;;;;2.56;89.89;97094.38;5000932;28;20042;-66
2021/11/24 08:07:25;;;;;;;21.23;12.27;;;;;;;2.35;89.89;97091.31;4994911;28;20081;-65
2021/11/24 08:09:51;;;;;;;23.52;13.18;;;;;;;2.33;90.68;97088.09;5001128;28;20042;-65
2021/11/24 08:12:17;;;;;;;24.88;13.35;;;;;;;2.30;91.36;97081.38;4995147;28;20151;-64
2021/11/24 08:14:42;;;;;;;22.00;12.43;;;;;;;2.43;90.43;97083.28;4999923;28;20069;-65
2021/11/24 08:17:08;;;;;;;21.08;11.80;;;;;;;2.57;89.16;97085.94;4993187;28;20431;-65
2021/11/24 08:19:33;;;;;;;26.35;14.65;;;;;;;2.21;89.33;97083.22;5000697;28;20052;-66
2021/11/24 08:21:59;;;;;;;23.00;13.50;;;;;;;2.21;90.31;97086.69;5001150;28;20403;-65
2021/11/24 08:24:24;;;;;;;21.70;13.85;;;;;;;2.11;90.59;97081.53;4995488;28;20045;-64
2021/11/24 08:26:51;;;;;;;23.77;13.85;;;;;;;2.21;90.80;97078.59;5001017;28;20096;-65
2021/11/24 08:29:17;;;;;;;27.92;14.93;;;;;;;2.51;90.00;97070.94;4989981;28;20046;-65
2021/11/24 08:31:42;;;;;;;24.20;13.30;;;;;;;2.54;89.34;97064.09;5000319;28;20060;-63
2021/11/24 08:34:09;;;;;;;25.35;14.70;;;;;;;2.48;88.78;97069.66;4995651;28;20057;-65
2021/11/24 08:36:36;;;;;;;23.90;13.35;;;;;;;2.65;88.70;97062.78;5005715;28;20373;-65
2021/11/24 08:39:02;;;;;;;51.53;25.33;;;;;;;2.60;88.23;97069.09;5005421;28;20488;-65
2021/11/24 08:41:28;;;;;;;29.05;15.77;;;;;;;2.51;87.73;97052.00;4999146;28;20042;-66
2021/11/24 08:43:53;;;;;;;26.42;14.20;;;;;;;2.66;88.31;97059.75;5001798;28;20038;-65
2021/11/24 08:46:19;;;;;;;21.42;12.05;;;;;;;2.69;87.83;97063.75;4994857;28;20042;-63
2021/11/24 08:48:44;;;;;;;24.20;13.07;;;;;;;2.62;87.89;97066.88;5001433;28;20116;-65
2021/11/24 08:51:10;;;;;;;25.63;12.25;;;;;;;2.81;87.12;97061.31;4996945;28;20044;-64
2021/11/24 08:53:35;;;;;;;23.10;12.38;;;;;;;2.95;85.92;97065.84;5002228;28;20053;-63
2021/11/24 08:56:02;;;;;;;22.65;11.88;;;;;;;2.99;85.03;97051.41;5002416;28;20473;-64
2021/11/24 08:58:28;;;;;;;20.50;11.80;;;;;;;3.08;85.36;97061.47;4999072;28;20045;-65
2021/11/24 09:00:54;;;;;;;21.23;11.40;;;;;;;3.06;85.36;97049.06;5005987;28;20459;-63
2021/11/24 09:03:21;;;;;;;19.15;10.15;;;;;;;3.01;85.40;97051.09;4998938;28;20053;-63
2021/11/24 09:05:47;;;;;;;22.10;11.90;;;;;;;2.64;86.35;97053.84;5003786;28;20034;-65
2021/11/24 09:08:12;;;;;;;28.33;14.05;;;;;;;2.57;88.63;97055.38;4998413;28;20037;-65
2021/11/24 09:10:40;;;;;;;31.33;15.80;;;;;;;2.96;87.04;97045.81;5005111;28;20038;-65
2021/11/24 09:13:05;;;;;;;24.25;13.65;;;;;;;3.11;86.23;97048.13;5001598;28;20085;-64
2021/11/24 09:15:31;;;;;;;24.00;13.25;;;;;;;2.68;87.40;97049.44;5004761;28;20146;-65
2021/11/24 09:17:56;;;;;;;23.45;13.15;;;;;;;2.48;89.37;97049.91;5006283;28;20045;-63
2021/11/24 09:20:22;;;;;;;23.30;12.52;;;;;;;2.87;87.70;97048.47;5002115;28;21031;-65
2021/11/24 09:22:48;;;;;;;36.80;17.60;;;;;;;2.16;89.53;97031.97;5009869;28;20212;-64
2021/11/24 09:25:18;;;;;;;72.25;32.00;;;;;;;2.57;88.84;97044.56;5005755;28;20048;-64
2021/11/24 09:30:20;;;;;;;45.80;24.20;;;;;;;3.02;85.54;97042.66;5006253;28;20046;-64
2021/11/24 09:32:46;;;;;;;51.65;25.70;;;;;;;2.87;87.03;97035.72;5010219;28;20049;-65
2021/11/24 09:35:12;;;;;;;21.85;12.57;;;;;;;2.74;86.97;97033.91;5003507;28;20042;-65
2021/11/24 09:37:38;;;;;;;21.88;12.30;;;;;;;2.86;86.09;97039.56;5009913;28;20046;-64
2021/11/24 09:40:06;;;;;;;20.20;11.70;;;;;;;3.13;84.79;97028.88;5009810;28;20046;-63
2021/11/24 09:42:35;;;;;;;20.30;11.38;;;;;;;3.09;84.38;97019.78;5014244;28;20049;-64
2021/11/24 09:45:01;;;;;;;20.92;11.45;;;;;;;3.32;83.78;97024.03;5016702;28;20045;-65
2021/11/24 09:47:27;;;;;;;20.85;11.75;;;;;;;3.52;83.44;97013.78;5008596;28;20056;-64
2021/11/24 09:49:58;;;;;;;19.40;10.93;;;;;;;3.25;82.56;97008.25;5003614;28;20408;-65
2021/11/24 09:52:24;;;;;;;21.35;12.85;;;;;;;3.28;83.46;97011.44;4998793;28;20061;-64
2021/11/24 09:54:50;;;;;;;17.73;10.18;;;;;;;3.34;83.84;97004.78;5003070;28;20380;-66
2021/11/24 09:57:18;;;;;;;20.77;11.90;;;;;;;3.64;82.55;97012.06;4998251;28;20046;-64
2021/11/24 09:59:44;;;;;;;31.35;12.95;;;;;;;3.34;83.09;97002.09;5003543;28;20049;-64
2021/11/24 10:02:12;;;;;;;22.50;11.40;;;;;;;2.53;86.79;97000.34;4998093;28;20034;-63
2021/11/24 10:04:37;;;;;;;21.75;11.73;;;;;;;2.53;87.74;96998.41;5002530;28;20064;-64
2021/11/24 10:07:03;;;;;;;20.88;11.27;;;;;;;2.91;87.56;97000.72;5010934;28;20046;-62
2021/11/24 10:09:28;;;;;;;22.20;11.57;;;;;;;3.25;84.75;96985.78;5001731;28;20164;-64
2021/11/24 10:11:54;;;;;;;20.17;11.23;;;;;;;3.39;83.79;96991.91;5002640;28;20612;-63
2021/11/24 10:14:20;;;;;;;22.33;11.82;;;;;;;2.98;85.80;96987.56;4998049;28;20042;-65
2021/11/24 10:16:46;;;;;;;20.88;10.73;;;;;;;2.89;86.32;96985.94;5000099;28;20466;-64
2021/11/24 10:19:13;;;;;;;25.05;12.45;;;;;;;2.81;86.75;96987.47;4998708;28;20639;-64
2021/11/24 10:21:57;;;;;;;21.65;12.02;;;;;;;2.68;87.85;96981.00;5002465;28;20042;-65
2021/11/24 10:24:31;;;;;;;21.85;11.70;;;;;;;3.10;86.65;96972.66;4998029;28;20046;-62
2021/11/24 10:26:57;;;;;;;20.70;11.25;;;;;;;2.98;85.93;96973.25;5003559;28;20128;-65
2021/11/24 10:29:23;;;;;;;22.80;12.95;;;;;;;2.45;89.13;96967.50;4995004;28;20057;-64
2021/11/24 10:32:04;;;;;;;24.63;12.70;;;;;;;2.27;89.15;96963.09;5002353;28;20046;-62
2021/11/24 10:34:30;;;;;;;23.48;13.23;;;;;;;2.31;90.74;96964.06;5001238;28;20041;-64
2021/11/24 10:37:02;;;;;;;23.10;13.43;;;;;;;2.04;90.71;96960.34;4999821;28;20041;-63
2021/11/24 10:39:31;;;;;;;28.65;13.95;;;;;;;2.08;91.77;96949.72;4996148;28;20050;-64
2021/11/24 10:42:04;;;;;;;22.52;11.70;;;;;;;2.33;89.77;96945.63;5001794;28;20058;-64
2021/11/24 10:44:31;;;;;;;23.13;13.38;;;;;;;2.53;88.90;96957.06;4999671;28;20042;-63
2021/11/24 10:46:58;;;;;;;28.13;13.10;;;;;;;2.85;88.02;96945.19;5001842;28;20128;-63
2021/11/24 10:49:44;;;;;;;25.63;13.43;;;;;;;2.77;89.30;96937.78;4997249;28;20045;-63
2021/11/24 10:52:22;;;;;;;24.55;13.40;;;;;;;2.54;90.54;96935.13;4996418;28;20057;-62
2021/11/24 10:54:58;;;;;;;23.50;13.90;;;;;;;2.51;89.63;96934.94;5001449;28;20042;-61
2021/11/24 10:57:24;;;;;;;29.95;16.65;;;;;;;2.35;90.26;96929.13;4995876;28;20083;-63
2021/11/24 10:59:49;;;;;;;28.20;16.33;;;;;;;2.44;89.67;96916.44;5001069;28;20045;-64
2021/11/24 11:02:23;;;;;;;23.73;14.43;;;;;;;2.58;90.10;96922.59;4993555;28;20061;-67
2021/11/24 11:05:04;;;;;;;26.77;15.10;;;;;;;2.64;89.40;96915.13;5002130;28;20121;-62
2021/11/24 11:07:32;;;;;;;21.38;11.98;;;;;;;2.63;89.14;96906.22;5000099;28;20053;-63
2021/11/24 11:10:04;;;;;;;24.77;14.77;;;;;;;2.51;89.32;96906.00;5002150;28;20092;-64
2021/11/24 11:12:30;;;;;;;24.80;14.77;;;;;;;2.62;89.95;96903.84;4999564;28;20343;-64
2021/11/24 11:15:14;;;;;;;21.98;13.27;;;;;;;2.78;89.45;96901.53;5002521;28;20038;-64
2021/11/24 11:17:48;;;;;;;23.30;13.00;;;;;;;2.63;89.33;96892.72;4999706;28;20049;-63
2021/11/24 11:20:13;;;;;;;24.58;14.90;;;;;;;2.37;90.52;96895.25;4994476;28;20041;-65
2021/11/24 11:22:39;;;;;;;23.63;12.88;;;;;;;2.41;91.85;96898.13;5001901;28;20045;-64